Temp: 13.7°C   Hum: 81%
  Wind: 2.0mph   Dir: WNW (286°)
  Rain: 0.0mm Rate: 0.0mm/hr
  Pressure: 1008.0mb

Historic data

Bath Spa Weather Station Historical Data
Daily Summary for January 18, 2022 Units:  Metric    English   Both
Daily Weekly Monthly Yearly Custom
  High: Low: Average:
Temperature: 7.1 °C -2 °C 1.9 °C
Dew Point: 5.6 °C -2.8 °C 0.9 °C
Humidity: 95% 88% 93%
Wind Speed: 5km/h 0km/h 0.3km/h
Wind Gust: 11.3km/h - -
Wind- - West
Pressure: 1039.8 hPa 1033.1 hPa -
Precipitation: 0.25 mm    
Historical Graphs
 
 
Tabular Data for January 18, 2022
Time Temperature Dew Point Pressure Wind Wind Speed Wind Gust Humidity Rainfall Rate (Hourly) solar
00:09 -1 °C -2.1 °C 1039.5 hPa Calm     92% 0 mm 0 W/m2
00:14 -1.1 °C -2.2 °C 1039.5 hPa Calm     92% 0 mm 0 W/m2
00:19 -1 °C -2.1 °C 1039.8 hPa Calm     92.2% 0 mm 0 W/m2
00:24 -1 °C -2 °C 1039.8 hPa Calm     92.6% 0 mm 0 W/m2
00:29 -1.1 °C -2.1 °C 1039.8 hPa Calm     92.8% 0 mm 0 W/m2
00:34 -1.1 °C -2.2 °C 1039.5 hPa Calm   1.6 km/h 92.2% 0 mm 0 W/m2
00:39 -1.1 °C -2.2 °C 1039.5 hPa Calm     92% 0 mm 0 W/m2
00:44 -1.1 °C -2.2 °C 1039.5 hPa Calm     92.4% 0 mm 0 W/m2
00:49 -1.1 °C -2.1 °C 1039.5 hPa Calm     93% 0 mm 0 W/m2
00:54 -1.2 °C -2.2 °C 1039.5 hPa Calm     93% 0 mm 0 W/m2
00:59 -1.3 °C -2.3 °C 1039.5 hPa Calm     93% 0 mm 0 W/m2
01:04 -1.3 °C -2.3 °C 1039.5 hPa Calm     93% 0 mm 0 W/m2
01:09 -1.3 °C -2.3 °C 1039.5 hPa Calm     93% 0 mm 0 W/m2
01:14 -1.3 °C -2.3 °C 1039.5 hPa Calm     93% 0 mm 0 W/m2
01:19 -1.3 °C -2.3 °C 1039.5 hPa Calm     93% 0 mm 0 W/m2
01:24 -1.3 °C -2.3 °C 1039.5 hPa Calm     93% 0 mm 0 W/m2
01:29 -1.3 °C -2.3 °C 1039.2 hPa NNW 0.3 km/h 3.2 km/h 93% 0 mm 0 W/m2
01:34 -1.3 °C -2.3 °C 1039.2 hPa Calm   1.6 km/h 93% 0 mm 0 W/m2
01:39 -1.3 °C -2.3 °C 1039.2 hPa Calm   1.6 km/h 93% 0 mm 0 W/m2
01:44 -1.3 °C -2.3 °C 1039.2 hPa Calm     93% 0 mm 0 W/m2
01:49 -1.3 °C -2.3 °C 1039.2 hPa Calm   1.6 km/h 93% 0 mm 0 W/m2
01:54 -1.3 °C -2.3 °C 1039.2 hPa Calm     93% 0 mm 0 W/m2
01:59 -1.2 °C -2.2 °C 1039.2 hPa Calm     93% 0 mm 0 W/m2
02:04 -1.3 °C -2.3 °C 1039.2 hPa Calm     93% 0 mm 0 W/m2
02:09 -1.3 °C -2.3 °C 1039.2 hPa Calm     93% 0 mm 0 W/m2
02:14 -1.3 °C -2.3 °C 1039.2 hPa Calm     93% 0 mm 0 W/m2
02:19 -1.3 °C -2.3 °C 1039.2 hPa Calm     93% 0 mm 0 W/m2
02:24 -1.4 °C -2.4 °C 1039.2 hPa Calm   1.6 km/h 93% 0 mm 0 W/m2
02:29 -1.4 °C -2.4 °C 1039.2 hPa Calm     93% 0 mm 0 W/m2
02:34 -1.4 °C -2.4 °C 1039.2 hPa Calm     93% 0 mm 0 W/m2
02:39 -1.4 °C -2.4 °C 1038.8 hPa NNW 0.3 km/h 1.6 km/h 93% 0 mm 0 W/m2
02:44 -1.5 °C -2.5 °C 1038.8 hPa NNW 0.6 km/h 3.2 km/h 93% 0 mm 0 W/m2
02:49 -1.5 °C -2.5 °C 1038.8 hPa Calm   3.2 km/h 93% 0 mm 0 W/m2
02:54 -1.6 °C -2.6 °C 1038.8 hPa Calm   1.6 km/h 93% 0 mm 0 W/m2
02:59 -1.6 °C -2.6 °C 1038.5 hPa NNW 0.3 km/h 1.6 km/h 93% 0 mm 0 W/m2
03:04 -1.6 °C -2.6 °C 1038.5 hPa Calm   1.6 km/h 93% 0 mm 0 W/m2
03:09 -1.6 °C -2.6 °C 1038.5 hPa Calm     93% 0 mm 0 W/m2
03:14 -1.6 °C -2.6 °C 1038.5 hPa Calm     93% 0 mm 0 W/m2
03:19 -1.6 °C -2.6 °C 1038.5 hPa Calm     93% 0 mm 0 W/m2
03:24 -1.6 °C -2.6 °C 1038.5 hPa Calm     93% 0 mm 0 W/m2
03:29 -1.6 °C -2.6 °C 1038.5 hPa Calm   1.6 km/h 93% 0 mm 0 W/m2
03:34 -1.6 °C -2.6 °C 1038.5 hPa Calm   1.6 km/h 93% 0 mm 0 W/m2
03:39 -1.6 °C -2.6 °C 1038.1 hPa Calm     93% 0 mm 0 W/m2
03:44 -1.6 °C -2.6 °C 1038.1 hPa Calm     93.2% 0 mm 0 W/m2
03:49 -1.6 °C -2.4 °C 1038.1 hPa Calm     93.8% 0 mm 0 W/m2
03:53 -1.6 °C -2.4 °C 1038.1 hPa NNW 0.3 km/h 1.6 km/h 94% 0 mm 0 W/m2
03:59 -1.6 °C -2.4 °C 1038.1 hPa Calm   1.6 km/h 94% 0 mm 0 W/m2
04:04 -1.6 °C -2.4 °C 1038.1 hPa NNW 0.3 km/h 3.2 km/h 94% 0 mm 0 W/m2
04:09 -1.6 °C -2.4 °C 1038.1 hPa NNW 0.6 km/h 3.2 km/h 94% 0 mm 0 W/m2
04:14 -1.6 °C -2.4 °C 1038.1 hPa Calm   3.2 km/h 94% 0 mm 0 W/m2
04:19 -1.6 °C -2.4 °C 1038.1 hPa Calm   1.6 km/h 94% 0 mm 0 W/m2
04:24 -1.6 °C -2.4 °C 1038.1 hPa Calm   1.6 km/h 94% 0 mm 0 W/m2
04:29 -1.6 °C -2.4 °C 1038.1 hPa Calm     94% 0 mm 0 W/m2
04:34 -1.6 °C -2.4 °C 1038.1 hPa Calm     94% 0 mm 0 W/m2
04:39 -1.7 °C -2.5 °C 1038.1 hPa Calm     94% 0 mm 0 W/m2
04:44 -1.7 °C -2.5 °C 1038.1 hPa Calm     94% 0 mm 0 W/m2
04:49 -1.7 °C -2.5 °C 1038.1 hPa Calm     94% 0 mm 0 W/m2
04:54 -1.7 °C -2.5 °C 1038.1 hPa Calm     94% 0 mm 0 W/m2
04:59 -1.7 °C -2.5 °C 1037.8 hPa Calm     94% 0 mm 0 W/m2
05:04 -1.7 °C -2.6 °C 1038.1 hPa Calm     94% 0 mm 0 W/m2
05:09 -1.8 °C -2.6 °C 1038.1 hPa Calm     94% 0 mm 0 W/m2
05:14 -1.8 °C -2.6 °C 1038.1 hPa Calm     94% 0 mm 0 W/m2
05:19 -1.9 °C -2.7 °C 1038.1 hPa Calm     94% 0 mm 0 W/m2
05:24 -1.9 °C -2.7 °C 1038.1 hPa Calm     94% 0 mm 0 W/m2
05:29 -1.9 °C -2.7 °C 1038.1 hPa Calm     94% 0 mm 0 W/m2
05:34 -2 °C -2.8 °C 1038.1 hPa Calm     94% 0 mm 0 W/m2
05:39 -2 °C -2.8 °C 1038.1 hPa Calm     94% 0 mm 0 W/m2
05:43 -1.9 °C -2.7 °C 1038.1 hPa Calm     94% 0 mm 0 W/m2
05:49 -1.9 °C -2.7 °C 1038.1 hPa Calm     94% 0 mm 0 W/m2
05:54 -1.9 °C -2.7 °C 1038.1 hPa Calm     94% 0 mm 0 W/m2
05:59 -1.9 °C -2.7 °C 1038.1 hPa Calm   3.2 km/h 94% 0 mm 0 W/m2
06:04 -1.9 °C -2.7 °C 1038.1 hPa NNW 0.3 km/h 3.2 km/h 94% 0 mm 0 W/m2
06:09 -1.9 °C -2.7 °C 1038.1 hPa Calm   1.6 km/h 94% 0 mm 0 W/m2
06:14 -1.9 °C -2.7 °C 1038.1 hPa Calm   1.6 km/h 94% 0 mm 0 W/m2
06:19 -1.9 °C -2.7 °C 1038.1 hPa Calm     94% 0 mm 0 W/m2
06:24 -1.9 °C -2.7 °C 1038.1 hPa Calm     94% 0 mm 0 W/m2
06:29 -1.9 °C -2.7 °C 1038.1 hPa Calm     94% 0 mm 0 W/m2
06:34 -1.8 °C -2.6 °C 1038.1 hPa Calm     94% 0 mm 0 W/m2
06:39 -1.8 °C -2.6 °C 1038.1 hPa Calm     94% 0 mm 0 W/m2
06:44 -1.7 °C -2.5 °C 1038.1 hPa Calm   1.6 km/h 94% 0 mm 0 W/m2
06:49 -1.7 °C -2.5 °C 1038.1 hPa Calm     94% 0 mm 0 W/m2
06:54 -1.7 °C -2.5 °C 1038.1 hPa Calm     94% 0 mm 0 W/m2
06:59 -1.7 °C -2.5 °C 1038.1 hPa Calm     94% 0 mm 0 W/m2
07:04 -1.7 °C -2.5 °C 1038.1 hPa Calm     94% 0 mm 0 W/m2
07:09 -1.7 °C -2.5 °C 1038.1 hPa Calm     94% 0 mm 0 W/m2
07:14 -1.7 °C -2.5 °C 1038.1 hPa Calm     94% 0 mm 0 W/m2
07:19 -1.7 °C -2.5 °C 1038.1 hPa Calm     94% 0 mm 0 W/m2
07:24 -1.7 °C -2.6 °C 1038.1 hPa Calm     94% 0 mm 0 W/m2
07:29 -1.8 °C -2.6 °C 1038.1 hPa NNW 2.3 km/h 6.4 km/h 94% 0 mm 0 W/m2
07:34 -1.9 °C -2.7 °C 1038.1 hPa NNW 0.3 km/h 6.4 km/h 94% 0 mm 0 W/m2
07:39 -1.9 °C -2.7 °C 1038.5 hPa Calm     94% 0 mm 0 W/m2
07:44 -1.9 °C -2.7 °C 1038.5 hPa Calm     94% 0 mm 0 W/m2
07:49 -1.9 °C -2.7 °C 1038.5 hPa Calm     94% 0 mm 0 W/m2
07:54 -1.9 °C -2.7 °C 1038.5 hPa Calm     94% 0 mm 0 W/m2
07:59 -1.8 °C -2.6 °C 1038.5 hPa Calm     94% 0 mm 0 W/m2
08:04 -1.8 °C -2.6 °C 1038.5 hPa Calm     94% 0 mm 0 W/m2
08:09 -1.7 °C -2.6 °C 1038.5 hPa Calm     94% 0 mm 0 W/m2
08:14 -1.7 °C -2.5 °C 1038.5 hPa Calm     94% 0 mm 0 W/m2
08:19 -1.7 °C -2.4 °C 1038.5 hPa Calm     94% 0 mm 7 W/m2
08:24 -1.6 °C -2.4 °C 1038.5 hPa Calm     94% 0 mm 7 W/m2
08:29 -1.5 °C -2.3 °C 1038.5 hPa Calm     94.2% 0 mm 7 W/m2
08:34 -1.3 °C -2 °C 1038.5 hPa Calm     95% 0 mm 12 W/m2
08:39 -1.2 °C -2 °C 1038.5 hPa Calm     94% 0 mm 14 W/m2
08:44 -1.1 °C -1.9 °C 1038.5 hPa Calm     94.2% 0 mm 19 W/m2
08:49 -0.9 °C -1.7 °C 1038.5 hPa Calm     95% 0 mm 26 W/m2
08:54 -0.8 °C -1.6 °C 1038.5 hPa Calm     95% 0 mm 28 W/m2
08:59 -0.8 °C -1.6 °C 1038.5 hPa Calm     94.4% 0 mm 35 W/m2
09:04 -0.7 °C -1.4 °C 1038.5 hPa Calm     94.4% 0 mm 37 W/m2
09:09 -0.6 °C -1.3 °C 1038.5 hPa Calm     95% 0 mm 37 W/m2
09:14 -0.6 °C -1.3 °C 1038.5 hPa Calm     95% 0 mm 39 W/m2
09:19 -0.4 °C -1.2 °C 1038.5 hPa Calm     95% 0 mm 40 W/m2
09:24 -0.3 °C -1.1 °C 1038.5 hPa Calm     95% 0 mm 47 W/m2
09:29 -0.2 °C -0.9 °C 1038.5 hPa Calm     95% 0 mm 54 W/m2
09:34 -0.2 °C -0.9 °C 1038.5 hPa Calm     95% 0 mm 54 W/m2
09:39 -0.2 °C -0.9 °C 1038.5 hPa Calm     95% 0 mm 54 W/m2
09:44 -0.1 °C -0.8 °C 1038.5 hPa Calm     95% 0 mm 56 W/m2
09:49 0.1 °C -0.6 °C 1038.8 hPa Calm     95% 0 mm 58 W/m2
09:54 0.1 °C -0.6 °C 1038.8 hPa Calm     95% 0.25 mm 70 W/m2
09:59 0.2 °C -0.5 °C 1038.8 hPa Calm     95% 0.25 mm 83 W/m2
10:04 0.3 °C -0.4 °C 1038.8 hPa Calm     95% 0.25 mm 86 W/m2
10:09 0.4 °C -0.3 °C 1038.8 hPa Calm     95% 0.25 mm 86 W/m2
10:14 0.7 °C -0.1 °C 1038.8 hPa Calm     95% 0.25 mm 81 W/m2
10:19 0.8 °C 0.1 °C 1038.8 hPa NNW 0.6 km/h 3.2 km/h 95% 0.25 mm 79 W/m2
10:24 0.9 °C 0.2 °C 1038.8 hPa NNW 0.3 km/h 3.2 km/h 95% 0.25 mm 77 W/m2
10:29 1.1 °C 0.4 °C 1038.8 hPa Calm     95% 0.25 mm 77 W/m2
10:34 1.2 °C 0.6 °C 1038.8 hPa Calm     95% 0.25 mm 91 W/m2
10:39 1.4 °C 0.8 °C 1038.8 hPa Calm     95% 0.25 mm 93 W/m2
10:44 1.7 °C 1 °C 1038.8 hPa Calm     95% 0.25 mm 100 W/m2
10:49 1.7 °C 1.1 °C 1038.8 hPa Calm     95% 0.25 mm 109 W/m2
10:54 1.8 °C 1.1 °C 1038.5 hPa Calm     95% 0.25 mm 113 W/m2
10:59 1.8 °C 1.1 °C 1038.5 hPa Calm     95% 0 mm 127 W/m2
11:04 1.8 °C 1.2 °C 1038.5 hPa Calm     95% 0 mm 135 W/m2
11:09 2.1 °C 1.3 °C 1038.5 hPa Calm     95% 0 mm 137 W/m2
11:14 2.2 °C 1.5 °C 1038.5 hPa Calm     95% 0 mm 123 W/m2
11:19 2.3 °C 1.6 °C 1038.5 hPa Calm     95% 0 mm 132 W/m2
11:24 2.4 °C 1.7 °C 1038.5 hPa Calm     95% 0 mm 116 W/m2
11:29 2.4 °C 1.7 °C 1038.1 hPa Calm     95% 0 mm 125 W/m2
11:34 2.6 °C 1.9 °C 1038.1 hPa Calm     95% 0 mm 130 W/m2
11:39 2.7 °C 2 °C 1038.1 hPa Calm     95% 0 mm 146 W/m2
11:44 2.8 °C 2.2 °C 1038.1 hPa Calm     95% 0 mm 134 W/m2
11:49 3.1 °C 2.4 °C 1038.1 hPa Calm     95% 0 mm 220 W/m2
11:54 3.4 °C 2.7 °C 1037.8 hPa Calm     95% 0 mm 169 W/m2
11:59 3.7 °C 3 °C 1037.8 hPa Calm     95% 0 mm 207 W/m2
12:04 3.9 °C 3.2 °C 1037.8 hPa Calm     95% 0 mm 221 W/m2
12:09 4.2 °C 3.5 °C 1037.8 hPa Calm     95% 0 mm 297 W/m2
12:14 4.7 °C 4.1 °C 1037.5 hPa Calm     95% 0 mm 343 W/m2
12:19 4.9 °C 4.2 °C 1037.5 hPa Calm     95% 0 mm 318 W/m2
12:24 5.2 °C 4.3 °C 1037.5 hPa NNW 1 km/h 4.8 km/h 94.4% 0 mm 315 W/m2
12:29 5.6 °C 4.7 °C 1037.5 hPa NNW 1.4 km/h 4.8 km/h 94% 0 mm 202 W/m2
12:34 6.4 °C 5.4 °C 1037.5 hPa NNW 2.6 km/h 6.4 km/h 93.8% 0 mm 185 W/m2
12:39 6.7 °C 5.6 °C 1037.1 hPa NNW 2.4 km/h 6.4 km/h 92.6% 0 mm 190 W/m2
12:44 6.2 °C 4.8 °C 1037.1 hPa NNW 0.8 km/h 4.8 km/h 90.6% 0 mm 213 W/m2
12:49 5.9 °C 4.4 °C 1037.1 hPa NNW 1.3 km/h 4.8 km/h 89.8% 0 mm 199 W/m2
12:54 5.9 °C 4.3 °C 1037.1 hPa NNW 1 km/h 3.2 km/h 89% 0 mm 214 W/m2
12:59 6.2 °C 4.5 °C 1037.1 hPa NNW 1.1 km/h 4.8 km/h 89% 0 mm 213 W/m2
13:04 6.4 °C 4.8 °C 1036.8 hPa NNW 3.2 km/h 4.8 km/h 89% 0 mm 190 W/m2
13:09 6.5 °C 4.8 °C 1036.8 hPa NNW 1.6 km/h 6.4 km/h 89% 0 mm 137 W/m2
13:14 6.3 °C 4.6 °C 1036.8 hPa Calm   3.2 km/h 88% 0 mm 97 W/m2
13:19 6.2 °C 4.4 °C 1036.8 hPa NNW 3.2 km/h 6.4 km/h 88% 0 mm 65 W/m2
13:24 6.1 °C 4.2 °C 1036.5 hPa NNW 3.5 km/h 8 km/h 88% 0 mm 69 W/m2
13:29 5.8 °C 4.1 °C 1036.5 hPa NNW 3.9 km/h 8 km/h 88% 0 mm 104 W/m2
13:34 5.8 °C 4.2 °C 1036.5 hPa NNW 1.3 km/h 6.4 km/h 88.8% 0 mm 125 W/m2
13:39 5.9 °C 4.2 °C 1036.8 hPa NNW 1.3 km/h 3.2 km/h 89% 0 mm 120 W/m2
13:44 5.9 °C 4.2 °C 1036.8 hPa NNW 2.7 km/h 6.4 km/h 89% 0 mm 130 W/m2
13:49 5.8 °C 4.2 °C 1036.8 hPa NNW 3.1 km/h 6.4 km/h 89% 0 mm 120 W/m2
13:54 5.8 °C 4.1 °C 1036.8 hPa NNW 1.3 km/h 6.4 km/h 89% 0 mm 100 W/m2
13:59 5.8 °C 4.1 °C 1036.5 hPa NNW 2.3 km/h 4.8 km/h 89% 0 mm 95 W/m2
14:04 5.8 °C 4.1 °C 1036.5 hPa NNW 2.1 km/h 4.8 km/h 89.2% 0 mm 100 W/m2
14:09 5.7 °C 4 °C 1036.5 hPa NNW 3.2 km/h 6.4 km/h 89% 0 mm 109 W/m2
14:14 5.6 °C 4 °C 1036.5 hPa NNW 3.4 km/h 8 km/h 89.4% 0 mm 121 W/m2
14:19 5.7 °C 4.2 °C 1036.5 hPa NNW 1.6 km/h 6.4 km/h 90% 0 mm 144 W/m2
14:24 5.7 °C 4.2 °C 1036.5 hPa NNW 1.6 km/h 4.8 km/h 90% 0 mm 197 W/m2
14:29 6.1 °C 4.6 °C 1036.5 hPa NNW 0.3 km/h 4.8 km/h 90% 0 mm 188 W/m2
14:34 6.4 °C 4.9 °C 1036.5 hPa NNW 1.3 km/h 3.2 km/h 90% 0 mm 181 W/m2
14:39 6.3 °C 4.8 °C 1036.5 hPa NNW 1.4 km/h 4.8 km/h 90% 0 mm 165 W/m2
14:44 6.3 °C 4.8 °C 1036.5 hPa NNW 1.6 km/h 4.8 km/h 90% 0 mm 181 W/m2
14:49 6.9 °C 5.4 °C 1036.5 hPa NNW 1 km/h 3.2 km/h 90% 0 mm 165 W/m2
14:54 7 °C 5.4 °C 1036.5 hPa Calm   3.2 km/h 89.4% 0 mm 186 W/m2
14:59 6.7 °C 5.1 °C 1036.5 hPa NNW 0.3 km/h 3.2 km/h 89% 0 mm 185 W/m2
15:04 7.1 °C 5.4 °C 1036.5 hPa Calm     89% 0 mm 141 W/m2
15:09 7.1 °C 5.3 °C 1036.1 hPa NNW 1 km/h 4.8 km/h 88.6% 0 mm 98 W/m2
15:14 6.7 °C 4.9 °C 1036.1 hPa NNW 2.4 km/h 4.8 km/h 88% 0 mm 76 W/m2
15:19 6.6 °C 4.8 °C 1036.1 hPa NNW 0.3 km/h 4.8 km/h 88% 0 mm 69 W/m2
15:24 6.4 °C 4.7 °C 1036.1 hPa NNW 0.3 km/h 3.2 km/h 88% 0 mm 54 W/m2
15:29 6.4 °C 4.7 °C 1036.1 hPa NNW 0.3 km/h 3.2 km/h 88.8% 0 mm 51 W/m2
15:34 6.4 °C 4.7 °C 1036.1 hPa NNW 0.3 km/h 3.2 km/h 89% 0 mm 40 W/m2
15:39 6.6 °C 4.9 °C 1035.8 hPa Calm   3.2 km/h 89% 0 mm 40 W/m2
15:44 6.6 °C 4.9 °C 1035.8 hPa Calm     89% 0 mm 49 W/m2
15:49 6.4 °C 4.7 °C 1035.8 hPa Calm     89% 0 mm 49 W/m2
15:54 6.3 °C 4.7 °C 1035.8 hPa Calm   1.6 km/h 89% 0 mm 40 W/m2
15:59 6.2 °C 4.5 °C 1035.8 hPa NNW 0.3 km/h 1.6 km/h 89% 0 mm 37 W/m2
16:04 6.3 °C 4.6 °C 1035.8 hPa Calm     89% 0 mm 39 W/m2
16:09 6.2 °C 4.5 °C 1035.8 hPa NNW 0.6 km/h 3.2 km/h 89% 0 mm 28 W/m2
16:14 6.2 °C 4.4 °C 1035.4 hPa Calm   3.2 km/h 89% 0 mm 23 W/m2
16:19 6.1 °C 4.4 °C 1035.8 hPa Calm   3.2 km/h 89% 0 mm 18 W/m2
16:24 6 °C 4.3 °C 1035.4 hPa Calm     89% 0 mm 12 W/m2
16:29 5.9 °C 4.2 °C 1035.4 hPa Calm     89% 0 mm 11 W/m2
16:34 5.8 °C 4.1 °C 1035.8 hPa Calm     89% 0 mm 7 W/m2
16:39 5.6 °C 3.9 °C 1035.8 hPa Calm     89% 0 mm 7 W/m2
16:44 5.4 °C 3.7 °C 1035.8 hPa Calm     89% 0 mm 5 W/m2
16:49 5.2 °C 3.5 °C 1035.8 hPa Calm     89% 0 mm 0 W/m2
16:54 5.1 °C 3.4 °C 1035.8 hPa Calm     89.4% 0 mm 0 W/m2
16:59 5 °C 3.4 °C 1035.8 hPa Calm     89.6% 0 mm 0 W/m2
17:04 4.9 °C 3.4 °C 1035.8 hPa Calm     90% 0 mm 0 W/m2
17:09 4.9 °C 3.4 °C 1035.8 hPa Calm     90% 0 mm 0 W/m2
17:14 4.9 °C 3.4 °C 1035.8 hPa Calm     90% 0 mm 0 W/m2
17:19 4.9 °C 3.4 °C 1035.8 hPa Calm     90% 0 mm 0 W/m2
17:24 4.9 °C 3.4 °C 1035.8 hPa Calm     90% 0 mm 0 W/m2
17:29 5 °C 3.5 °C 1035.8 hPa NNW 0.6 km/h 1.6 km/h 90% 0 mm 0 W/m2
17:34 5 °C 3.6 °C 1035.8 hPa NNW 1.9 km/h 3.2 km/h 90.6% 0 mm 0 W/m2
17:39 4.9 °C 3.7 °C 1035.8 hPa NNW 1.3 km/h 4.8 km/h 91% 0 mm 0 W/m2
17:44 4.9 °C 3.6 °C 1035.8 hPa NNW 0.3 km/h 1.6 km/h 91% 0 mm 0 W/m2
17:49 4.9 °C 3.6 °C 1035.8 hPa Calm   1.6 km/h 91% 0 mm 0 W/m2
17:54 4.9 °C 3.6 °C 1035.8 hPa Calm   1.6 km/h 91% 0 mm 0 W/m2
17:59 4.8 °C 3.5 °C 1035.4 hPa Calm   1.6 km/h 91% 0 mm 0 W/m2
18:04 4.8 °C 3.5 °C 1035.4 hPa Calm   1.6 km/h 91% 0 mm 0 W/m2
18:09 4.8 °C 3.6 °C 1035.8 hPa Calm   1.6 km/h 91% 0 mm 0 W/m2
18:14 4.8 °C 3.6 °C 1035.8 hPa Calm   1.6 km/h 91.6% 0 mm 0 W/m2
18:19 4.9 °C 3.7 °C 1035.4 hPa Calm   1.6 km/h 91.6% 0 mm 0 W/m2
18:24 4.9 °C 3.7 °C 1035.4 hPa NNW 0.6 km/h 3.2 km/h 92% 0 mm 0 W/m2
18:29 4.8 °C 3.7 °C 1035.4 hPa NNW 1.9 km/h 4.8 km/h 92% 0 mm 0 W/m2
18:34 4.8 °C 3.6 °C 1035.1 hPa NNE 5 km/h 11.3 km/h 92% 0 mm 0 W/m2
18:39 4.7 °C 3.5 °C 1035.1 hPa ENE 2.1 km/h 8 km/h 92% 0 mm 0 W/m2
18:44 4.6 °C 3.4 °C 1035.1 hPa ENE 2.3 km/h 4.8 km/h 92% 0 mm 0 W/m2
18:49 4.6 °C 3.3 °C 1035.1 hPa ENE 0.8 km/h 3.2 km/h 92% 0 mm 0 W/m2
18:54 4.4 °C 3.2 °C 1035.1 hPa ENE 1.9 km/h 4.8 km/h 92% 0 mm 0 W/m2
18:59 4.4 °C 3.2 °C 1035.1 hPa ENE 1.4 km/h 3.2 km/h 92% 0 mm 0 W/m2
19:04 4.3 °C 3.1 °C 1035.1 hPa ENE 1.1 km/h 3.2 km/h 92% 0 mm 0 W/m2
19:09 4.3 °C 3.1 °C 1035.1 hPa ENE 0.8 km/h 4.8 km/h 92% 0 mm 0 W/m2
19:14 4.3 °C 3.1 °C 1035.1 hPa ENE 1.4 km/h 3.2 km/h 92% 0 mm 0 W/m2
19:19 4.3 °C 3.1 °C 1035.1 hPa ENE 0.6 km/h 3.2 km/h 92% 0 mm 0 W/m2
19:24 4.2 °C 3 °C 1035.1 hPa ENE 0.6 km/h 3.2 km/h 92% 0 mm 0 W/m2
19:29 4 °C 2.8 °C 1034.8 hPa ENE 0.6 km/h 3.2 km/h 92% 0 mm 0 W/m2
19:34 3.9 °C 2.7 °C 1034.8 hPa ENE 0.6 km/h 3.2 km/h 92% 0 mm 0 W/m2
19:39 3.8 °C 2.6 °C 1034.8 hPa Calm     92% 0 mm 0 W/m2
19:44 3.7 °C 2.5 °C 1034.8 hPa Calm     92% 0 mm 0 W/m2
19:49 3.5 °C 2.3 °C 1034.8 hPa Calm     92% 0 mm 0 W/m2
19:54 3.3 °C 2.1 °C 1034.8 hPa Calm     92% 0 mm 0 W/m2
19:59 3.3 °C 2.1 °C 1034.8 hPa ENE 1.3 km/h 3.2 km/h 92.2% 0 mm 0 W/m2
20:04 3.2 °C 2.2 °C 1034.8 hPa ENE 0.6 km/h 3.2 km/h 93% 0 mm 0 W/m2
20:09 3.2 °C 2.2 °C 1034.8 hPa ENE 2.1 km/h 3.2 km/h 92.8% 0 mm 0 W/m2
20:14 3.2 °C 2.2 °C 1034.8 hPa ENE 0.6 km/h 3.2 km/h 93% 0 mm 0 W/m2
20:19 3.1 °C 2.1 °C 1034.8 hPa ENE 0.6 km/h 3.2 km/h 93% 0 mm 0 W/m2
20:24 3.1 °C 2.1 °C 1034.4 hPa Calm   1.6 km/h 93% 0 mm 0 W/m2
20:29 3.1 °C 2.1 °C 1034.4 hPa Calm     93% 0 mm 0 W/m2
20:34 3.1 °C 2.1 °C 1034.4 hPa Calm     93% 0 mm 0 W/m2
20:39 3.1 °C 2.1 °C 1034.4 hPa Calm     93% 0 mm 0 W/m2
20:44 3.2 °C 2.1 °C 1034.4 hPa Calm     93% 0 mm 0 W/m2
20:49 3.2 °C 2.2 °C 1034.4 hPa Calm     93% 0 mm 0 W/m2
20:54 3.2 °C 2.2 °C 1034.4 hPa Calm     93% 0 mm 0 W/m2
20:59 3.3 °C 2.3 °C 1034.4 hPa Calm     93% 0 mm 0 W/m2
21:04 3.3 °C 2.3 °C 1034.1 hPa Calm     93% 0 mm 0 W/m2
21:09 3.4 °C 2.4 °C 1034.1 hPa Calm     93% 0 mm 0 W/m2
21:14 3.4 °C 2.4 °C 1034.4 hPa Calm     93.4% 0 mm 0 W/m2
21:19 3.5 °C 2.6 °C 1034.1 hPa Calm     94% 0 mm 0 W/m2
21:24 3.6 °C 2.7 °C 1034.1 hPa Calm     94% 0 mm 0 W/m2
21:29 3.6 °C 2.7 °C 1034.1 hPa Calm     93.6% 0 mm 0 W/m2
21:34 3.7 °C 2.8 °C 1034.1 hPa Calm     94% 0 mm 0 W/m2
21:39 3.7 °C 2.8 °C 1034.1 hPa Calm     94% 0 mm 0 W/m2
21:44 3.7 °C 2.8 °C 1034.1 hPa Calm     94% 0 mm 0 W/m2
21:49 3.7 °C 2.8 °C 1033.7 hPa Calm     94% 0 mm 0 W/m2
21:54 3.7 °C 2.8 °C 1033.7 hPa Calm     94% 0 mm 0 W/m2
21:59 3.7 °C 2.7 °C 1033.7 hPa Calm     94% 0 mm 0 W/m2
22:04 3.6 °C 2.7 °C 1033.7 hPa Calm     94% 0 mm 0 W/m2
22:09 3.6 °C 2.7 °C 1033.7 hPa Calm     94% 0 mm 0 W/m2
22:14 3.6 °C 2.7 °C 1033.7 hPa Calm     94% 0 mm 0 W/m2
22:19 3.6 °C 2.7 °C 1033.7 hPa Calm     94% 0 mm 0 W/m2
22:24 3.6 °C 2.7 °C 1033.7 hPa Calm     94% 0 mm 0 W/m2
22:29 3.6 °C 2.7 °C 1033.7 hPa Calm     94% 0 mm 0 W/m2
22:34 3.4 °C 2.6 °C 1033.7 hPa Calm     94% 0 mm 0 W/m2
22:39 3.4 °C 2.5 °C 1033.4 hPa Calm     94% 0 mm 0 W/m2
22:44 3.3 °C 2.4 °C 1033.4 hPa Calm     94% 0 mm 0 W/m2
22:49 3.3 °C 2.4 °C 1033.4 hPa Calm     94% 0 mm 0 W/m2
22:54 3.3 °C 2.4 °C 1033.4 hPa Calm     94% 0 mm 0 W/m2
22:59 3.3 °C 2.4 °C 1033.4 hPa Calm     94% 0 mm 0 W/m2
23:04 3.3 °C 2.4 °C 1033.4 hPa Calm     94% 0 mm 0 W/m2
23:09 3.3 °C 2.4 °C 1033.4 hPa Calm     94% 0 mm 0 W/m2
23:14 3.3 °C 2.4 °C 1033.4 hPa Calm     94% 0 mm 0 W/m2
23:19 3.3 °C 2.4 °C 1033.1 hPa Calm     94% 0 mm 0 W/m2
23:24 3.3 °C 2.4 °C 1033.1 hPa Calm     94% 0 mm 0 W/m2
23:29 3.3 °C 2.4 °C 1033.1 hPa Calm     94% 0 mm 0 W/m2
23:34 3.3 °C 2.4 °C 1033.1 hPa Calm     94% 0 mm 0 W/m2
23:39 3.3 °C 2.4 °C 1033.1 hPa Calm     94% 0 mm 0 W/m2
23:44 3.3 °C 2.6 °C 1033.1 hPa Calm     95% 0 mm 0 W/m2
23:49 3.3 °C 2.6 °C 1033.1 hPa Calm     95% 0 mm 0 W/m2
23:54 3.4 °C 2.7 °C 1033.1 hPa Calm     95% 0 mm 0 W/m2
23:59 3.4 °C 2.8 °C 1033.1 hPa Calm     95% 0 mm 0 W/m2
Bath Spa Weather
Compliments of Weather Underground - 2 mb